Time;durP1;ratioP1;P1;durP2;ratioP2;P2;SDS_P1;SDS_P2;PMS_P1;PMS_P2;Temp;Humidity;BMP_temperature;BMP_pressure;BME280_temperature;BME280_humidity;BME280_pressure;Samples;Min_cycle;Max_cycle;Signal;HPM_P1;HPM_P2
2021/03/19 00:00:15;;;;;;;7.70;6.17;;;8.40;47.60;;;;;;5005510;28;20037;-63
2021/03/19 00:02:40;;;;;;;7.70;6.80;;;8.40;47.60;;;;;;5010269;28;20037;-64
2021/03/19 00:05:11;;;;;;;9.33;6.80;;;8.30;47.60;;;;;;5003919;28;20364;-64
2021/03/19 00:07:58;;;;;;;8.90;5.90;;;8.40;47.90;;;;;;5008593;28;20034;-64
2021/03/19 00:10:28;;;;;;;9.47;6.43;;;8.30;47.50;;;;;;4984168;28;20176;-64
2021/03/19 00:12:57;;;;;;;9.37;6.20;;;8.30;47.70;;;;;;5006412;28;20038;-64
2021/03/19 00:15:24;;;;;;;9.80;6.20;;;8.30;47.20;;;;;;4990906;28;20459;-64
2021/03/19 00:17:50;;;;;;;7.70;5.50;;;8.40;47.40;;;;;;5003522;28;20038;-63
2021/03/19 00:20:16;;;;;;;9.57;5.83;;;8.40;47.20;;;;;;5003867;28;20049;-63
2021/03/19 00:22:42;;;;;;;8.97;5.80;;;8.40;46.80;;;;;;5000159;28;20034;-64
2021/03/19 00:25:08;;;;;;;7.17;6.20;;;8.50;46.90;;;;;;4997191;28;20419;-65
2021/03/19 00:27:34;;;;;;;6.70;5.53;;;8.50;46.80;;;;;;5005395;28;20108;-64
2021/03/19 00:30:13;;;;;;;7.70;5.87;;;8.40;46.60;;;;;;5001598;28;20045;-64
2021/03/19 00:32:40;;;;;;;7.60;5.93;;;8.40;47.60;;;;;;5003825;28;20069;-64
2021/03/19 00:35:07;;;;;;;8.67;5.50;;;8.40;47.20;;;;;;5000843;28;20806;-64
2021/03/19 00:37:32;;;;;;;8.53;6.50;;;8.40;46.90;;;;;;5008880;28;20218;-64
2021/03/19 00:39:58;;;;;;;10.53;7.20;;;8.40;46.90;;;;;;5007408;28;20550;-64
2021/03/19 00:42:24;;;;;;;8.10;5.43;;;8.40;47.00;;;;;;5010075;28;20056;-64
2021/03/19 00:44:50;;;;;;;8.93;5.77;;;8.50;46.90;;;;;;5004200;28;20049;-63
2021/03/19 00:47:15;;;;;;;10.07;5.87;;;8.40;46.90;;;;;;5008541;28;20053;-64
2021/03/19 00:49:41;;;;;;;8.67;6.03;;;8.50;47.20;;;;;;5003713;28;20076;-64
2021/03/19 00:52:08;;;;;;;8.80;5.83;;;8.40;47.10;;;;;;5006221;28;20494;-64
2021/03/19 00:54:34;;;;;;;6.33;5.53;;;8.40;47.00;;;;;;5008630;28;20050;-65
2021/03/19 00:57:00;;;;;;;9.10;6.67;;;8.40;46.90;;;;;;4998625;28;20406;-65
2021/03/19 00:59:25;;;;;;;7.87;6.33;;;8.40;46.90;;;;;;5005834;28;20034;-65
2021/03/19 01:01:52;;;;;;;8.30;5.30;;;8.40;47.40;;;;;;5005393;28;20562;-64
2021/03/19 01:04:17;;;;;;;10.00;6.07;;;8.30;46.80;;;;;;5008410;28;20066;-62
2021/03/19 01:06:43;;;;;;;6.83;5.67;;;8.40;46.70;;;;;;5004678;28;20073;-63
2021/03/19 01:09:08;;;;;;;6.77;5.40;;;8.20;46.80;;;;;;5002472;28;20078;-65
2021/03/19 01:11:34;;;;;;;6.10;5.27;;;8.30;46.90;;;;;;5001307;28;20463;-64
2021/03/19 01:14:00;;;;;;;6.90;5.37;;;8.40;46.80;;;;;;5007382;28;20037;-64
2021/03/19 01:16:25;;;;;;;6.83;5.50;;;8.30;47.00;;;;;;4999558;28;20046;-63
2021/03/19 01:18:51;;;;;;;8.80;6.20;;;8.20;47.50;;;;;;4999767;28;20081;-64
2021/03/19 01:21:17;;;;;;;7.47;6.03;;;8.30;47.60;;;;;;4999346;28;20518;-64
2021/03/19 01:23:45;;;;;;;6.30;5.70;;;8.30;47.50;;;;;;4998259;28;20164;-63
2021/03/19 01:26:12;;;;;;;7.87;6.30;;;8.40;47.80;;;;;;5004641;28;20124;-64
2021/03/19 01:28:37;;;;;;;9.20;6.23;;;8.20;47.50;;;;;;5002652;28;20074;-64
2021/03/19 01:31:03;;;;;;;9.10;7.33;;;8.20;48.00;;;;;;5003466;28;20073;-64
2021/03/19 01:33:29;;;;;;;9.70;6.90;;;8.20;48.00;;;;;;4998207;28;20072;-64
2021/03/19 01:35:55;;;;;;;9.87;6.57;;;8.10;48.10;;;;;;5005090;28;20046;-63
2021/03/19 01:38:20;;;;;;;8.63;6.90;;;8.20;48.20;;;;;;4996838;28;20034;-63
2021/03/19 01:40:47;;;;;;;9.57;7.00;;;8.20;48.60;;;;;;4997155;28;20415;-63
2021/03/19 01:43:18;;;;;;;9.50;7.33;;;8.20;48.80;;;;;;5000866;28;20438;-62
2021/03/19 01:46:05;;;;;;;8.90;6.70;;;8.20;48.70;;;;;;5005631;28;20480;-63
2021/03/19 01:49:07;;;;;;;8.77;6.37;;;8.20;48.50;;;;;;4999452;28;20049;-64
2021/03/19 01:52:11;;;;;;;8.60;6.43;;;8.30;49.00;;;;;;4981590;28;20046;-64
2021/03/19 01:55:14;;;;;;;9.03;7.50;;;8.30;49.50;;;;;;4977903;28;20556;-64
2021/03/19 01:58:17;;;;;;;8.73;6.07;;;8.30;49.70;;;;;;4978307;28;20034;-64
2021/03/19 02:01:20;;;;;;;10.57;6.47;;;8.30;48.90;;;;;;4989757;28;20110;-64
2021/03/19 02:04:23;;;;;;;8.60;6.70;;;8.20;49.20;;;;;;4955495;28;20045;-64
2021/03/19 02:07:26;;;;;;;7.93;6.07;;;8.20;49.20;;;;;;4965706;28;20046;-63
2021/03/19 02:10:29;;;;;;;10.53;5.93;;;8.20;48.70;;;;;;4977931;28;20037;-64
2021/03/19 02:13:32;;;;;;;14.60;6.80;;;8.20;48.60;;;;;;4974435;28;20125;-64
2021/03/19 02:16:35;;;;;;;10.10;6.40;;;8.30;48.80;;;;;;4979339;28;20038;-64
2021/03/19 02:19:38;;;;;;;6.60;5.97;;;8.20;48.10;;;;;;4975491;28;20121;-64
2021/03/19 02:22:40;;;;;;;7.80;5.57;;;8.30;48.80;;;;;;4984806;28;20463;-64
2021/03/19 02:25:43;;;;;;;8.47;6.07;;;8.20;47.80;;;;;;4962558;28;20034;-64
2021/03/19 02:28:46;;;;;;;8.80;6.17;;;8.20;47.50;;;;;;4984959;28;20037;-64
2021/03/19 02:31:12;;;;;;;7.30;5.83;;;8.20;47.80;;;;;;4983634;28;20045;-64
2021/03/19 02:33:46;;;;;;;7.30;5.77;;;8.10;47.70;;;;;;5003005;28;20152;-64
2021/03/19 02:36:12;;;;;;;9.47;6.33;;;8.10;47.40;;;;;;5002466;28;20046;-64
2021/03/19 02:38:38;;;;;;;7.33;6.13;;;8.20;47.20;;;;;;5007378;28;20046;-64
2021/03/19 02:41:04;;;;;;;7.67;6.10;;;8.30;47.20;;;;;;5003142;28;20041;-64
2021/03/19 02:43:30;;;;;;;7.70;6.33;;;8.30;47.10;;;;;;5008083;28;20449;-64
2021/03/19 02:45:56;;;;;;;9.77;6.40;;;8.30;47.00;;;;;;5004029;28;20048;-65
2021/03/19 02:48:23;;;;;;;9.33;6.53;;;8.30;47.20;;;;;;5006993;28;20041;-64
2021/03/19 02:50:49;;;;;;;6.57;5.67;;;8.30;47.30;;;;;;5000786;28;20108;-64
2021/03/19 02:53:16;;;;;;;8.60;6.23;;;8.20;47.10;;;;;;5007182;28;20069;-64
2021/03/19 02:55:42;;;;;;;10.90;6.47;;;8.30;47.40;;;;;;5006691;28;20042;-64
2021/03/19 02:58:08;;;;;;;8.23;6.70;;;8.20;47.40;;;;;;5008601;28;20100;-64
2021/03/19 03:03:55;;;;;;;8.57;6.07;;;8.30;46.90;;;;;;4913517;28;20054;-64
2021/03/19 03:06:21;;;;;;;6.40;5.80;;;8.20;46.60;;;;;;5004915;28;20042;-64
2021/03/19 03:08:47;;;;;;;7.40;5.93;;;8.20;47.30;;;;;;5009953;28;20061;-64
2021/03/19 03:11:12;;;;;;;8.47;5.87;;;8.20;47.30;;;;;;5000911;28;20037;-65
2021/03/19 03:13:38;;;;;;;9.40;5.97;;;8.30;46.70;;;;;;5004061;28;20042;-65
2021/03/19 03:16:04;;;;;;;7.30;5.47;;;8.30;46.90;;;;;;4999998;28;20048;-63
2021/03/19 03:18:30;;;;;;;9.77;6.43;;;8.30;46.60;;;;;;5006622;28;20046;-63
2021/03/19 03:20:58;;;;;;;6.57;5.87;;;8.30;46.70;;;;;;5007390;28;20509;-63
2021/03/19 03:23:25;;;;;;;7.80;6.13;;;8.30;46.70;;;;;;5010266;28;20034;-64
2021/03/19 03:25:53;;;;;;;8.20;5.93;;;8.30;46.40;;;;;;4998198;28;20065;-63
2021/03/19 03:28:21;;;;;;;7.57;6.50;;;8.30;46.00;;;;;;5010148;28;20045;-63
2021/03/19 03:30:53;;;;;;;7.50;5.97;;;8.30;46.20;;;;;;4999869;28;20048;-63
2021/03/19 03:33:19;;;;;;;9.80;5.93;;;8.40;46.10;;;;;;5001594;28;20085;-63
2021/03/19 03:35:45;;;;;;;7.87;5.77;;;8.30;45.60;;;;;;5022214;28;20033;-63
2021/03/19 03:38:14;;;;;;;7.87;5.43;;;8.20;45.80;;;;;;5002011;28;20048;-64
2021/03/19 03:41:05;;;;;;;7.23;5.63;;;8.20;45.20;;;;;;5007303;28;20038;-64
2021/03/19 03:43:31;;;;;;;8.57;5.60;;;8.20;45.80;;;;;;4983142;28;20025;-63
2021/03/19 03:45:58;;;;;;;8.90;5.90;;;8.20;45.50;;;;;;5004856;28;20056;-63
2021/03/19 03:48:28;;;;;;;7.47;5.50;;;8.20;44.90;;;;;;4996773;28;20030;-63
2021/03/19 03:50:54;;;;;;;7.33;5.63;;;8.10;45.10;;;;;;5007133;28;20085;-64
2021/03/19 03:53:21;;;;;;;8.53;6.13;;;8.00;45.20;;;;;;5005282;28;20046;-63
2021/03/19 03:55:48;;;;;;;7.30;5.83;;;8.10;45.20;;;;;;5009066;28;20051;-63
2021/03/19 03:58:13;;;;;;;7.40;6.07;;;8.10;45.30;;;;;;5001812;28;20467;-57
2021/03/19 04:00:40;;;;;;;6.37;5.33;;;7.90;45.90;;;;;;5006155;28;20046;-64
2021/03/19 04:03:08;;;;;;;10.00;5.80;;;8.00;45.90;;;;;;5005742;28;20096;-63
2021/03/19 04:05:37;;;;;;;9.43;6.50;;;8.00;45.70;;;;;;5008483;28;20168;-64
2021/03/19 04:08:03;;;;;;;8.60;5.70;;;8.00;45.60;;;;;;4998779;28;20053;-64
2021/03/19 04:10:29;;;;;;;8.43;5.90;;;7.80;45.70;;;;;;5007411;28;20034;-63
2021/03/19 04:12:55;;;;;;;9.37;6.20;;;7.90;46.20;;;;;;5001614;28;20044;-63
2021/03/19 04:15:23;;;;;;;8.90;6.30;;;7.80;46.10;;;;;;5004538;28;20038;-63
2021/03/19 04:17:56;;;;;;;7.33;5.60;;;7.80;46.00;;;;;;5005309;28;20103;-63
2021/03/19 04:20:24;;;;;;;9.47;6.43;;;7.70;46.30;;;;;;5000897;28;20045;-63
2021/03/19 04:22:49;;;;;;;8.80;6.53;;;7.70;46.60;;;;;;5009785;28;20042;-63
2021/03/19 04:25:16;;;;;;;8.50;6.57;;;7.70;46.70;;;;;;4999243;28;20049;-63
2021/03/19 04:27:54;;;;;;;11.40;6.93;;;7.70;46.90;;;;;;5002679;28;20034;-64
2021/03/19 04:30:36;;;;;;;8.33;6.20;;;7.60;47.40;;;;;;4981186;28;20033;-64
2021/03/19 04:33:02;;;;;;;9.90;7.20;;;7.70;47.00;;;;;;5007664;28;20041;-64
2021/03/19 04:35:30;;;;;;;8.80;6.30;;;7.50;47.30;;;;;;5002211;28;20053;-64
2021/03/19 04:37:59;;;;;;;13.93;6.53;;;7.60;47.10;;;;;;5009120;28;20045;-64
2021/03/19 04:40:27;;;;;;;9.00;6.73;;;7.60;47.10;;;;;;5000436;28;20105;-64
2021/03/19 04:42:53;;;;;;;7.80;6.80;;;7.60;47.30;;;;;;5003952;28;20479;-64
2021/03/19 04:45:20;;;;;;;10.57;6.97;;;7.50;47.30;;;;;;5004034;28;20082;-64
2021/03/19 04:47:45;;;;;;;8.23;7.00;;;7.40;47.50;;;;;;5007768;28;20096;-64
2021/03/19 04:50:12;;;;;;;10.43;6.77;;;7.40;47.50;;;;;;5001918;28;20523;-64
2021/03/19 04:52:38;;;;;;;10.33;7.00;;;7.50;47.40;;;;;;5008575;28;20042;-64
2021/03/19 04:55:05;;;;;;;10.80;6.53;;;7.40;47.90;;;;;;5004199;28;20111;-64
2021/03/19 04:57:31;;;;;;;10.67;7.17;;;7.40;48.00;;;;;;5005038;28;20038;-64
2021/03/19 04:59:57;;;;;;;8.33;6.93;;;7.50;48.00;;;;;;5003254;28;20046;-64
2021/03/19 05:02:37;;;;;;;10.00;7.10;;;7.50;47.90;;;;;;5004953;28;20033;-64
2021/03/19 05:05:05;;;;;;;11.60;6.37;;;7.50;48.40;;;;;;5017010;28;20443;-64
2021/03/19 05:07:30;;;;;;;8.23;6.93;;;7.40;48.10;;;;;;5002062;28;20041;-64
2021/03/19 05:09:56;;;;;;;10.53;6.90;;;7.40;48.40;;;;;;5000668;28;20128;-64
2021/03/19 05:12:21;;;;;;;9.83;6.60;;;7.50;48.20;;;;;;5007448;28;20384;-64
2021/03/19 05:14:47;;;;;;;9.27;6.53;;;7.20;48.30;;;;;;5002212;28;20164;-64
2021/03/19 05:17:13;;;;;;;9.17;7.33;;;7.20;49.00;;;;;;5001407;28;20037;-64
2021/03/19 05:19:39;;;;;;;12.60;7.20;;;7.10;48.70;;;;;;5001926;28;20042;-64
2021/03/19 05:22:05;;;;;;;9.50;7.00;;;7.10;48.90;;;;;;5002128;28;20088;-64
2021/03/19 05:24:31;;;;;;;10.17;7.47;;;7.10;48.90;;;;;;5003868;28;20046;-64
2021/03/19 05:26:56;;;;;;;12.87;7.73;;;7.00;48.90;;;;;;5000703;28;20567;-64
2021/03/19 05:29:22;;;;;;;9.97;6.90;;;7.00;49.30;;;;;;5007982;28;20037;-64
2021/03/19 05:31:48;;;;;;;13.80;7.53;;;7.00;48.80;;;;;;5001573;28;20081;-64
2021/03/19 05:34:13;;;;;;;10.57;7.43;;;6.80;49.20;;;;;;5005592;28;20088;-65
2021/03/19 05:36:39;;;;;;;8.63;7.00;;;6.90;49.10;;;;;;5000754;28;20042;-64
2021/03/19 05:39:06;;;;;;;10.23;6.90;;;6.90;49.40;;;;;;5005980;28;20129;-64
2021/03/19 05:41:35;;;;;;;8.47;6.73;;;7.00;49.40;;;;;;4998556;28;20046;-64
2021/03/19 05:44:07;;;;;;;9.20;7.13;;;6.90;49.50;;;;;;5006645;28;20038;-64
2021/03/19 05:46:37;;;;;;;10.03;7.03;;;6.80;49.80;;;;;;4998488;28;20052;-63
2021/03/19 05:49:31;;;;;;;12.17;6.97;;;6.80;49.90;;;;;;5002178;28;20038;-64
2021/03/19 05:51:59;;;;;;;9.50;6.97;;;6.90;50.60;;;;;;4980503;28;20051;-64
2021/03/19 05:54:27;;;;;;;8.37;6.40;;;6.80;50.20;;;;;;5003000;28;20403;-64
2021/03/19 05:57:04;;;;;;;11.90;7.70;;;6.80;50.00;;;;;;5005064;28;20030;-64
2021/03/19 05:59:34;;;;;;;10.80;7.10;;;6.90;50.40;;;;;;5006714;28;20033;-64
2021/03/19 06:02:00;;;;;;;9.40;6.80;;;6.80;49.70;;;;;;4998797;28;20058;-64
2021/03/19 06:04:28;;;;;;;8.90;6.60;;;6.80;50.10;;;;;;5002563;28;20042;-64
2021/03/19 06:07:02;;;;;;;7.30;6.60;;;6.80;50.30;;;;;;5000475;28;20539;-64
2021/03/19 06:09:33;;;;;;;12.48;7.60;;;6.60;50.60;;;;;;5003764;28;20045;-64
2021/03/19 06:12:06;;;;;;;11.07;7.97;;;6.50;50.60;;;;;;5003801;28;20053;-64
2021/03/19 06:14:45;;;;;;;12.93;7.37;;;6.60;51.10;;;;;;4999634;28;20054;-64
2021/03/19 06:17:27;;;;;;;10.13;6.83;;;6.50;51.60;;;;;;5004162;28;20040;-63
2021/03/19 06:20:10;;;;;;;9.90;7.13;;;6.50;51.40;;;;;;4980700;28;20033;-63
2021/03/19 06:22:37;;;;;;;9.57;6.43;;;6.60;51.60;;;;;;4999636;28;20033;-64
2021/03/19 06:25:16;;;;;;;9.80;7.10;;;6.60;51.20;;;;;;5001424;28;20041;-64
2021/03/19 06:27:58;;;;;;;12.03;7.33;;;6.60;51.70;;;;;;5000154;28;20034;-64
2021/03/19 06:30:32;;;;;;;11.30;6.53;;;6.60;51.40;;;;;;4981126;28;20045;-63
2021/03/19 06:33:12;;;;;;;9.10;7.05;;;6.70;51.30;;;;;;5001823;28;20049;-64
2021/03/19 06:35:39;;;;;;;12.23;6.53;;;6.70;51.80;;;;;;5006190;28;20057;-64
2021/03/19 06:38:29;;;;;;;11.60;6.40;;;6.80;51.20;;;;;;5005307;28;20365;-64
2021/03/19 06:40:55;;;;;;;13.90;6.47;;;6.80;51.80;;;;;;4979253;28;20096;-63
2021/03/19 06:43:26;;;;;;;9.53;6.43;;;6.80;51.50;;;;;;5004696;28;20052;-64
2021/03/19 06:46:12;;;;;;;10.53;7.10;;;6.80;51.90;;;;;;4997732;28;20040;-63
2021/03/19 06:48:42;;;;;;;9.07;6.33;;;6.90;52.00;;;;;;4998996;28;20045;-64
2021/03/19 06:51:33;;;;;;;15.80;7.07;;;6.90;51.50;;;;;;5001335;28;20112;-64
2021/03/19 06:54:14;;;;;;;9.93;6.60;;;6.90;51.90;;;;;;4969318;28;20038;-64
2021/03/19 06:57:10;;;;;;;10.70;7.47;;;6.90;51.60;;;;;;5001507;28;20118;-65
2021/03/19 06:59:44;;;;;;;;;;;7.10;51.20;;;;;;4991750;28;20033;-63
2021/03/19 07:02:31;;;;;;;8.73;6.23;;;7.00;51.80;;;;;;5001280;28;20019;-63
2021/03/19 07:05:22;;;;;;;11.17;6.70;;;7.10;51.60;;;;;;4969966;28;20054;-64
2021/03/19 07:08:17;;;;;;;8.70;5.43;;;7.10;51.60;;;;;;5004161;28;20049;-64
2021/03/19 07:11:17;;;;;;;9.93;5.63;;;7.10;51.60;;;;;;5001937;28;20088;-64
2021/03/19 07:14:01;;;;;;;7.67;5.73;;;7.00;52.10;;;;;;4976421;28;20124;-64
2021/03/19 07:16:54;;;;;;;9.80;5.93;;;7.10;51.90;;;;;;4975422;28;20046;-64
2021/03/19 07:19:25;;;;;;;13.17;5.73;;;7.20;51.50;;;;;;4988192;28;20053;-63
2021/03/19 07:22:24;;;;;;;9.00;6.10;;;7.20;51.60;;;;;;4994239;28;20395;-64
2021/03/19 07:25:14;;;;;;;6.67;4.67;;;7.10;51.80;;;;;;4974254;28;20042;-64
2021/03/19 07:28:00;;;;;;;6.60;5.20;;;7.30;51.80;;;;;;5001165;28;20034;-63
2021/03/19 07:30:33;;;;;;;8.23;5.50;;;7.20;52.10;;;;;;4975477;28;20038;-63
2021/03/19 07:33:24;;;;;;;11.53;5.80;;;7.30;51.40;;;;;;5000027;28;20380;-63
2021/03/19 07:35:56;;;;;;;10.20;5.33;;;7.30;51.40;;;;;;4971497;28;20042;-64
2021/03/19 07:38:45;;;;;;;9.80;4.87;;;7.40;51.30;;;;;;4997000;28;20040;-63
2021/03/19 07:41:26;;;;;;;9.73;4.83;;;7.40;51.50;;;;;;4997915;28;20061;-64
2021/03/19 07:44:11;;;;;;;10.17;4.40;;;7.60;50.80;;;;;;4979619;28;20081;-64
2021/03/19 07:46:36;;;;;;;8.60;4.72;;;7.70;51.00;;;;;;4998440;28;20097;-62
2021/03/19 07:49:20;;;;;;;7.47;4.63;;;7.60;50.70;;;;;;5010054;28;20042;-63
2021/03/19 07:52:04;;;;;;;12.00;5.73;;;7.70;50.60;;;;;;4995977;28;20503;-63
2021/03/19 07:54:58;;;;;;;14.97;5.77;;;7.60;51.00;;;;;;5007912;28;20072;-63
2021/03/19 07:57:34;;;;;;;8.87;5.03;;;7.80;50.50;;;;;;4945775;28;20062;-62
2021/03/19 08:00:09;;;;;;;5.97;4.60;;;7.80;50.40;;;;;;5004528;28;20111;-63
2021/03/19 08:02:52;;;;;;;6.95;4.95;;;7.90;50.10;;;;;;5000888;28;20042;-62
2021/03/19 08:05:21;;;;;;;9.03;4.77;;;8.00;50.20;;;;;;5004761;28;20050;-62
2021/03/19 08:08:08;;;;;;;5.80;4.37;;;8.10;49.60;;;;;;5003034;28;20049;-63
2021/03/19 08:11:04;;;;;;;7.73;4.33;;;8.10;48.90;;;;;;5001576;28;20488;-63
2021/03/19 08:13:40;;;;;;;9.83;4.73;;;8.10;49.10;;;;;;4963079;28;20054;-63
2021/03/19 08:16:29;;;;;;;7.30;4.10;;;8.40;49.20;;;;;;5003515;28;20096;-64
2021/03/19 08:19:00;;;;;;;6.90;4.53;;;8.40;48.80;;;;;;4977736;28;20029;-63
2021/03/19 08:21:41;;;;;;;6.57;4.40;;;8.50;48.40;;;;;;4993563;28;20029;-64
2021/03/19 08:24:34;;;;;;;7.60;5.03;;;8.50;48.20;;;;;;4990123;28;20556;-63
2021/03/19 08:27:36;;;;;;;8.07;4.83;;;8.50;48.30;;;;;;4982216;28;20088;-63
2021/03/19 08:30:12;;;;;;;6.83;4.20;;;8.60;47.90;;;;;;4978694;28;20026;-64
2021/03/19 08:32:49;;;;;;;6.20;4.63;;;8.70;47.30;;;;;;5003026;28;20038;-63
2021/03/19 08:35:52;;;;;;;5.77;4.40;;;8.70;47.30;;;;;;5012914;28;20526;-58
2021/03/19 08:38:31;;;;;;;7.03;3.97;;;9.00;46.90;;;;;;4970699;28;20121;-62
2021/03/19 08:41:11;;;;;;;7.37;4.87;;;8.90;46.90;;;;;;4999048;28;20049;-63
2021/03/19 08:44:02;;;;;;;9.73;4.60;;;9.10;46.40;;;;;;5005146;28;20491;-64
2021/03/19 08:46:42;;;;;;;6.77;4.40;;;9.20;46.60;;;;;;4958891;28;20041;-64
2021/03/19 08:49:26;;;;;;;6.37;4.00;;;9.10;46.70;;;;;;5000994;28;20097;-64
2021/03/19 08:51:55;;;;;;;6.87;4.33;;;9.10;46.30;;;;;;4983253;28;20057;-64
2021/03/19 08:54:31;;;;;;;6.07;3.93;;;9.30;46.20;;;;;;5004338;28;20399;-63
2021/03/19 08:57:03;;;;;;;4.70;4.00;;;9.40;46.20;;;;;;4980930;28;20031;-63
2021/03/19 08:59:34;;;;;;;5.43;3.63;;;9.60;45.30;;;;;;5000455;28;20068;-63
2021/03/19 09:02:07;;;;;;;7.47;3.70;;;9.50;44.80;;;;;;5005130;28;20494;-65
2021/03/19 09:04:58;;;;;;;7.60;3.67;;;9.50;45.00;;;;;;5004541;28;20045;-63
2021/03/19 09:07:37;;;;;;;8.43;5.17;;;9.60;44.90;;;;;;4988263;28;20061;-64
2021/03/19 09:10:17;;;;;;;9.90;7.60;;;9.60;44.90;;;;;;4992456;28;20487;-64
2021/03/19 09:12:55;;;;;;;6.30;4.10;;;9.50;44.50;;;;;;5004251;28;20103;-64
2021/03/19 09:15:21;;;;;;;6.37;4.23;;;9.40;44.90;;;;;;4982476;28;20049;-64
2021/03/19 09:18:00;;;;;;;7.83;5.00;;;9.20;45.50;;;;;;5004048;28;20121;-64
2021/03/19 09:20:41;;;;;;;9.10;4.60;;;9.30;45.70;;;;;;5000702;28;20110;-65
2021/03/19 09:23:12;;;;;;;10.00;5.30;;;9.40;45.70;;;;;;4997397;28;20068;-64
2021/03/19 09:26:14;;;;;;;9.23;4.53;;;9.60;45.40;;;;;;4999485;28;21287;-64
2021/03/19 09:28:57;;;;;;;8.73;4.87;;;9.60;45.00;;;;;;4978699;28;20467;-64
2021/03/19 09:31:26;;;;;;;8.00;5.03;;;9.70;44.70;;;;;;4939437;28;20030;-63
2021/03/19 09:33:51;;;;;;;7.57;4.43;;;9.90;44.40;;;;;;5008443;28;20407;-64
2021/03/19 09:36:54;;;;;;;11.33;4.60;;;10.00;43.60;;;;;;4999524;28;20030;-63
2021/03/19 09:39:45;;;;;;;6.23;4.77;;;10.10;44.30;;;;;;5000939;28;20060;-64
2021/03/19 09:42:20;;;;;;;7.30;4.63;;;10.20;43.20;;;;;;4994078;28;20423;-64
2021/03/19 09:44:47;;;;;;;10.77;6.47;;;10.10;43.10;;;;;;5000622;28;20038;-64
2021/03/19 09:47:15;;;;;;;8.73;4.73;;;10.10;43.20;;;;;;4998547;28;20553;-63
2021/03/19 09:49:41;;;;;;;5.17;4.43;;;10.10;43.60;;;;;;5014825;28;20068;-63
2021/03/19 09:52:18;;;;;;;7.53;4.80;;;10.20;43.60;;;;;;4992163;28;20107;-63
2021/03/19 09:54:45;;;;;;;9.33;5.23;;;10.30;43.30;;;;;;4990492;28;20046;-64
2021/03/19 09:57:21;;;;;;;6.47;4.00;;;10.10;43.50;;;;;;4994293;28;20138;-64
2021/03/19 10:00:13;;;;;;;6.50;4.87;;;10.20;43.00;;;;;;5004807;28;20048;-64
2021/03/19 10:02:40;;;;;;;6.77;4.63;;;10.40;42.60;;;;;;5002548;28;20045;-64
2021/03/19 10:05:14;;;;;;;5.63;4.77;;;10.30;42.50;;;;;;5001011;28;20472;-64
2021/03/19 10:07:50;;;;;;;6.22;4.30;;;10.40;42.30;;;;;;5004608;28;20046;-65
2021/03/19 10:10:25;;;;;;;7.97;4.80;;;10.70;42.50;;;;;;4997837;28;20080;-64
2021/03/19 10:12:51;;;;;;;6.15;4.15;;;10.90;42.10;;;;;;4984322;28;20045;-64
2021/03/19 10:15:36;;;;;;;8.33;4.77;;;10.80;42.10;;;;;;4996653;28;20046;-64
2021/03/19 10:18:05;;;;;;;5.18;4.35;;;10.80;41.90;;;;;;5002313;28;20121;-64
2021/03/19 10:20:35;;;;;;;9.07;4.50;;;10.90;41.90;;;;;;4991457;28;20045;-65
2021/03/19 10:23:13;;;;;;;6.67;4.00;;;10.90;41.50;;;;;;4980444;28;20041;-64
2021/03/19 10:25:43;;;;;;;4.00;3.60;;;11.10;40.80;;;;;;5003235;28;20121;-64
2021/03/19 10:28:12;;;;;;;5.57;4.97;;;11.10;40.20;;;;;;4998975;28;20058;-64
2021/03/19 10:31:02;;;;;;;5.43;3.97;;;11.10;40.90;;;;;;5003709;28;20046;-64
2021/03/19 10:33:42;;;;;;;5.03;3.50;;;11.10;40.40;;;;;;4987450;28;20039;-63
2021/03/19 10:36:18;;;;;;;4.43;3.80;;;11.10;40.30;;;;;;5004297;28;20112;-65
2021/03/19 10:38:53;;;;;;;6.30;3.87;;;11.20;39.30;;;;;;4998414;28;20088;-65
2021/03/19 10:41:24;;;;;;;7.73;4.17;;;11.20;39.60;;;;;;5005588;28;20138;-68
2021/03/19 10:44:12;;;;;;;5.50;4.07;;;11.10;40.10;;;;;;5003819;28;20034;-69
2021/03/19 10:46:58;;;;;;;7.70;4.20;;;11.30;38.70;;;;;;4990109;28;20042;-68
2021/03/19 10:49:55;;;;;;;4.67;3.30;;;11.50;39.00;;;;;;4976281;28;20034;-69
2021/03/19 10:52:53;;;;;;;5.23;3.70;;;11.70;37.90;;;;;;4974868;28;20038;-69
2021/03/19 10:55:30;;;;;;;6.10;3.90;;;11.70;37.60;;;;;;4998812;28;20053;-67
2021/03/19 10:58:26;;;;;;;10.37;4.43;;;11.70;42.00;;;;;;4998426;28;20050;-68
2021/03/19 11:00:52;;;;;;;;;;;11.60;37.00;;;;;;4985722;28;20089;-68
2021/03/19 11:03:43;;;;;;;3.73;3.40;;;11.30;37.40;;;;;;5004608;28;19925;-68
2021/03/19 11:06:12;;;;;;;5.10;3.37;;;11.40;36.50;;;;;;5006811;28;20100;-69
2021/03/19 11:08:38;;;;;;;5.53;3.80;;;11.40;37.70;;;;;;5003871;28;20381;-69
2021/03/19 11:11:04;;;;;;;8.00;4.70;;;11.50;37.80;;;;;;5003228;28;20493;-68
2021/03/19 11:13:33;;;;;;;6.87;4.40;;;11.50;36.70;;;;;;5008817;28;20041;-69
2021/03/19 11:16:02;;;;;;;4.40;3.07;;;11.60;37.20;;;;;;4987297;28;20109;-68
2021/03/19 11:18:36;;;;;;;5.53;3.60;;;11.40;37.20;;;;;;4927560;28;20045;-68
2021/03/19 11:21:10;;;;;;;4.13;3.57;;;11.40;36.70;;;;;;4994818;28;20061;-68
2021/03/19 11:23:40;;;;;;;4.82;3.78;;;11.60;37.10;;;;;;4997576;28;20034;-68
2021/03/19 11:26:28;;;;;;;6.30;3.80;;;11.80;36.70;;;;;;4950497;28;20074;-68
2021/03/19 11:29:18;;;;;;;5.57;4.30;;;12.10;37.70;;;;;;4978368;28;20073;-68
2021/03/19 11:32:04;;;;;;;8.03;3.90;;;12.10;56.90;;;;;;5002738;28;20038;-68
2021/03/19 11:34:39;;;;;;;5.10;3.33;;;12.30;57.30;;;;;;4981394;28;20429;-67
2021/03/19 11:37:07;;;;;;;4.32;2.95;;;12.30;56.60;;;;;;5004723;28;20488;-68
2021/03/19 11:39:41;;;;;;;6.27;3.60;;;12.40;33.70;;;;;;5005340;28;20572;-68
2021/03/19 11:42:14;;;;;;;6.50;3.92;;;12.40;33.00;;;;;;4997563;28;20401;-68
2021/03/19 11:44:41;;;;;;;4.67;3.40;;;12.70;34.00;;;;;;5006316;28;20034;-68
2021/03/19 11:47:26;;;;;;;3.20;2.90;;;12.60;33.70;;;;;;4995235;28;20459;-68
2021/03/19 11:50:07;;;;;;;4.13;3.33;;;12.70;32.50;;;;;;4979113;28;20038;-68
2021/03/19 11:52:33;;;;;;;5.70;3.17;;;12.90;32.00;;;;;;5005677;28;20046;-68
2021/03/19 11:55:00;;;;;;;3.30;3.00;;;13.10;52.40;;;;;;4992613;28;20037;-68
2021/03/19 11:57:26;;;;;;;8.50;3.47;;;;;;;;;;4990879;28;20410;-68
2021/03/19 11:59:51;;;;;;;3.92;3.10;;;13.30;30.40;;;;;;5007043;28;20521;-68
2021/03/19 12:02:37;;;;;;;3.10;2.80;;;13.60;31.40;;;;;;4998225;28;20034;-67
2021/03/19 12:05:05;;;;;;;5.25;2.70;;;13.60;28.60;;;;;;5007338;28;20041;-69
2021/03/19 12:07:30;;;;;;;3.65;2.97;;;13.60;29.70;;;;;;5004342;28;20052;-69
2021/03/19 12:09:56;;;;;;;4.95;3.92;;;13.40;30.60;;;;;;4996067;28;20419;-69
2021/03/19 12:12:26;;;;;;;3.33;2.95;;;13.40;30.30;;;;;;4979466;28;20041;-68
2021/03/19 12:14:53;;;;;;;3.72;2.85;;;13.30;29.80;;;;;;4987299;28;20446;-69
2021/03/19 12:17:21;;;;;;;3.17;2.88;;;13.40;29.50;;;;;;4994582;28;20042;-69
2021/03/19 12:19:47;;;;;;;3.35;3.05;;;13.10;28.90;;;;;;5002184;28;20034;-67
2021/03/19 12:22:12;;;;;;;3.75;2.72;;;12.70;28.90;;;;;;4980393;28;20037;-69
2021/03/19 12:24:38;;;;;;;4.82;3.15;;;12.70;30.00;;;;;;4996018;28;20126;-70
2021/03/19 12:27:05;;;;;;;10.20;5.27;;;12.70;29.30;;;;;;4994813;28;20045;-71
2021/03/19 12:29:31;;;;;;;5.35;3.47;;;12.80;28.60;;;;;;5000419;28;20855;-73
2021/03/19 12:31:57;;;;;;;7.17;2.83;;;13.30;28.50;;;;;;4994221;28;20529;-64
2021/03/19 12:34:23;;;;;;;5.15;3.47;;;16.40;24.80;;;;;;5003987;28;20395;-61
2021/03/19 12:36:50;;;;;;;5.53;3.35;;;15.90;26.00;;;;;;5003821;28;20067;-60
2021/03/19 12:39:18;;;;;;;5.30;3.42;;;15.10;27.30;;;;;;5000204;28;20042;-60
2021/03/19 12:41:44;;;;;;;5.72;3.88;;;14.50;27.70;;;;;;5003637;28;20086;-61
2021/03/19 12:44:10;;;;;;;6.07;3.42;;;13.80;28.40;;;;;;5005342;28;20030;-60
2021/03/19 12:46:39;;;;;;;5.93;4.05;;;13.70;29.00;;;;;;5005895;28;20083;-59
2021/03/19 12:49:04;;;;;;;8.60;3.97;;;17.30;25.30;;;;;;5001840;28;20034;-62
2021/03/19 12:51:30;;;;;;;3.58;3.00;;;17.10;24.80;;;;;;5002892;28;20040;-63
2021/03/19 12:53:57;;;;;;;4.50;2.85;;;15.90;25.30;;;;;;5003567;28;20057;-62
2021/03/19 12:56:22;;;;;;;4.65;3.47;;;15.40;26.20;;;;;;5005086;28;20446;-64
2021/03/19 12:58:48;;;;;;;4.65;3.42;;;18.00;21.50;;;;;;4995972;28;20117;-61
2021/03/19 13:01:18;;;;;;;5.97;3.30;;;17.40;23.70;;;;;;5007975;28;20037;-61
2021/03/19 13:03:44;;;;;;;4.28;2.80;;;16.40;24.60;;;;;;5001653;28;20503;-62
2021/03/19 13:06:10;;;;;;;4.97;3.22;;;15.20;23.90;;;;;;5005605;28;20049;-63
2021/03/19 13:08:36;;;;;;;5.43;3.58;;;15.00;25.40;;;;;;5001909;28;20050;-67
2021/03/19 13:11:02;;;;;;;5.07;3.10;;;14.40;27.00;;;;;;5002080;28;20054;-62
2021/03/19 13:13:28;;;;;;;4.60;3.40;;;14.20;27.30;;;;;;5002540;28;20116;-63
2021/03/19 13:15:53;;;;;;;4.95;3.85;;;13.80;27.70;;;;;;4997630;28;20045;-63
2021/03/19 13:18:19;;;;;;;3.40;3.00;;;13.80;26.90;;;;;;5000071;28;20030;-63
2021/03/19 13:20:45;;;;;;;3.55;3.03;;;13.70;26.20;;;;;;4999671;28;20054;-64
2021/03/19 13:23:12;;;;;;;3.35;2.72;;;13.80;26.70;;;;;;5007354;28;20041;-63
2021/03/19 13:25:41;;;;;;;6.45;3.22;;;13.90;26.60;;;;;;4998559;28;20042;-67
2021/03/19 13:28:07;;;;;;;7.65;3.22;;;13.80;26.50;;;;;;5000901;28;20061;-66
2021/03/19 13:30:34;;;;;;;3.75;3.20;;;13.60;27.00;;;;;;5000087;28;20495;-67